createdAt,value
2017-12-05T00:02:11.764Z,83.90
2017-12-05T00:04:39.259Z,84.20
2017-12-05T00:07:07.526Z,84.40
2017-12-05T00:09:35.810Z,84.60
2017-12-05T00:12:04.075Z,84.80
2017-12-05T00:14:31.584Z,84.80
2017-12-05T00:16:59.099Z,85.10
2017-12-05T00:19:27.359Z,84.30
2017-12-05T00:21:54.879Z,84.30
2017-12-05T00:24:22.404Z,84.10
2017-12-05T00:26:50.663Z,83.40
2017-12-05T00:29:18.956Z,83.70
2017-12-05T00:31:47.235Z,83.50
2017-12-05T00:34:15.498Z,83.70
2017-12-05T00:36:43.772Z,83.70
2017-12-05T00:39:12.063Z,83.90
2017-12-05T00:41:40.327Z,83.40
2017-12-05T00:44:08.596Z,83.20
2017-12-05T00:46:36.115Z,83.20
2017-12-05T00:49:03.603Z,83.00
2017-12-05T00:51:31.104Z,83.30
2017-12-05T00:53:58.622Z,83.30
2017-12-05T00:56:26.117Z,83.60
2017-12-05T00:58:53.623Z,83.10
2017-12-05T01:01:21.127Z,82.80
2017-12-05T01:03:49.387Z,82.80
2017-12-05T01:06:17.675Z,82.90
2017-12-05T01:08:45.940Z,83.10
2017-12-05T01:11:14.208Z,83.10
2017-12-05T01:13:42.479Z,82.60
2017-12-05T01:16:09.982Z,82.60
2017-12-05T01:18:37.475Z,82.40
2017-12-05T01:21:04.979Z,82.40
2017-12-05T01:23:33.255Z,82.40
2017-12-05T01:26:01.521Z,82.80
2017-12-05T01:28:29.799Z,82.50
2017-12-05T01:30:58.063Z,82.10
2017-12-05T01:33:25.579Z,82.10
2017-12-05T01:35:53.091Z,82.50
2017-12-05T01:38:21.362Z,81.90
2017-12-05T01:40:49.753Z,82.00
2017-12-05T01:43:18.016Z,82.20
2017-12-05T01:45:46.292Z,82.10
2017-12-05T01:48:13.785Z,82.10
2017-12-05T01:50:41.302Z,82.60
2017-12-05T01:53:09.583Z,82.60
2017-12-05T01:55:37.091Z,82.50
2017-12-05T01:58:04.590Z,82.40
2017-12-05T02:00:34.443Z,82.50
2017-12-05T02:03:01.946Z,82.50
2017-12-05T02:05:29.443Z,82.50
2017-12-05T02:07:57.723Z,82.80
2017-12-05T02:23:32.638Z,80.80
2017-12-05T02:26:00.923Z,79.50
2017-12-05T02:28:29.199Z,79.00
2017-12-05T02:30:57.456Z,78.80
2017-12-05T02:33:25.743Z,79.00
2017-12-05T02:35:54.004Z,79.30
2017-12-05T02:38:21.495Z,79.30
2017-12-05T02:41:01.048Z,80.30
2017-12-05T02:43:28.563Z,80.90
2017-12-05T02:45:56.855Z,82.10
2017-12-05T02:48:25.120Z,83.10
2017-12-05T02:50:53.506Z,83.40
2017-12-05T02:53:21.788Z,83.70
2017-12-05T02:55:50.054Z,83.80
2017-12-05T02:58:18.318Z,84.00
2017-12-05T03:00:47.340Z,84.00
2017-12-05T03:03:15.595Z,84.00
2017-12-05T03:05:43.091Z,84.00
2017-12-05T03:08:10.604Z,83.90
2017-12-05T03:10:38.095Z,83.90
2017-12-05T03:13:05.595Z,83.60
2017-12-05T03:15:33.100Z,83.60
2017-12-05T03:18:01.360Z,83.60
2017-12-05T03:20:29.641Z,83.50
2017-12-05T03:22:57.907Z,83.60
2017-12-05T03:25:25.401Z,83.40
2017-12-05T03:27:52.944Z,84.10
2017-12-05T03:30:20.439Z,84.10
2017-12-05T03:32:47.939Z,83.90
2017-12-05T03:35:21.280Z,83.90
2017-12-05T03:37:48.775Z,84.00
2017-12-05T03:40:16.287Z,83.80
2017-12-05T03:42:43.795Z,83.20
2017-12-05T03:45:11.292Z,83.50
2017-12-05T03:47:39.559Z,83.40
2017-12-05T03:50:07.839Z,83.30
2017-12-05T03:52:36.122Z,83.10
2017-12-05T03:55:04.395Z,83.60
2017-12-05T03:57:32.878Z,84.30
2017-12-05T04:00:01.151Z,84.30
2017-12-05T04:02:29.423Z,84.30
2017-12-05T04:04:57.711Z,84.50
2017-12-05T04:07:25.979Z,84.30
2017-12-05T04:09:54.264Z,83.90
2017-12-05T04:12:22.527Z,83.50
2017-12-05T04:14:50.807Z,83.50
2017-12-05T04:17:19.187Z,83.20
2017-12-05T04:19:47.453Z,83.40
2017-12-05T04:22:15.734Z,83.70
2017-12-05T04:24:43.998Z,83.60
2017-12-05T04:27:11.526Z,83.50
2017-12-05T04:29:39.023Z,83.60
2017-12-05T04:32:07.304Z,83.30
2017-12-05T04:34:35.575Z,83.40
2017-12-05T04:37:03.855Z,83.40
2017-12-05T04:39:32.130Z,84.00
2017-12-05T04:42:00.419Z,83.60
2017-12-05T04:44:28.703Z,83.80
2017-12-05T04:46:56.208Z,83.80
2017-12-05T04:49:23.711Z,83.50
2017-12-05T04:51:51.986Z,83.40
2017-12-05T04:54:20.277Z,83.10
2017-12-05T04:56:47.779Z,83.10
2017-12-05T04:59:15.278Z,82.60
2017-12-05T05:01:43.547Z,82.60
2017-12-05T05:04:11.829Z,83.30
2017-12-05T05:06:40.102Z,82.50
2017-12-05T05:09:08.372Z,82.40
2017-12-05T05:11:36.647Z,82.60
2017-12-05T05:14:04.915Z,82.20
2017-12-05T05:16:32.408Z,82.20
2017-12-05T05:18:59.923Z,82.10
2017-12-05T05:21:27.422Z,82.40
2017-12-05T05:23:54.946Z,82.20
2017-12-05T05:26:22.453Z,82.40
2017-12-05T05:28:49.947Z,82.50
2017-12-05T05:31:17.460Z,82.60
2017-12-05T05:33:45.068Z,82.50
2017-12-05T05:36:12.566Z,82.50
2017-12-05T05:38:40.834Z,82.90
2017-12-05T05:41:09.100Z,83.00
2017-12-05T05:43:36.601Z,82.90
2017-12-05T05:46:04.120Z,82.20
2017-12-05T05:48:31.612Z,82.80
2017-12-05T05:50:59.251Z,82.40
2017-12-05T05:53:27.739Z,82.40
2017-12-05T05:55:56.211Z,82.30
2017-12-05T05:58:24.496Z,82.40
2017-12-05T06:00:52.845Z,82.60
2017-12-05T06:03:20.348Z,82.60
2017-12-05T06:05:47.960Z,82.90
2017-12-05T06:08:15.460Z,82.90
2017-12-05T06:10:42.967Z,83.10
2017-12-05T06:13:10.479Z,83.00
2017-12-05T06:15:37.979Z,83.60
2017-12-05T06:18:05.483Z,83.60
2017-12-05T06:20:33.749Z,83.40
2017-12-05T06:23:02.248Z,83.70
2017-12-05T06:25:29.763Z,83.70
2017-12-05T06:27:57.272Z,83.90
2017-12-05T06:30:24.787Z,84.20
2017-12-05T06:32:52.287Z,84.40
2017-12-05T06:35:19.795Z,84.00
2017-12-05T06:37:47.296Z,83.60
2017-12-05T06:40:14.831Z,83.30
2017-12-05T06:42:42.331Z,83.00
2017-12-05T06:45:09.931Z,83.90
2017-12-05T06:47:37.624Z,83.00
2017-12-05T06:50:05.891Z,83.00
2017-12-05T06:52:34.164Z,82.90
2017-12-05T06:55:02.447Z,83.10
2017-12-05T06:57:30.728Z,82.90
2017-12-05T06:59:59.022Z,82.80
2017-12-05T07:02:26.667Z,82.80
2017-12-05T07:04:54.931Z,83.20
2017-12-05T07:07:23.191Z,83.30
2017-12-05T07:09:50.702Z,82.90
2017-12-05T07:12:18.203Z,82.80
2017-12-05T07:14:45.698Z,82.50
2017-12-05T07:17:13.979Z,82.90
2017-12-05T07:19:42.464Z,83.00
2017-12-05T07:22:10.728Z,83.00
2017-12-05T07:24:38.996Z,82.90
2017-12-05T07:27:07.487Z,82.50
2017-12-05T07:29:35.749Z,82.60
2017-12-05T07:32:03.246Z,82.50
2017-12-05T07:34:30.779Z,82.30
2017-12-05T07:36:59.039Z,82.00
2017-12-05T07:39:26.538Z,82.00
2017-12-05T07:41:54.035Z,82.50
2017-12-05T07:44:21.547Z,81.70
2017-12-05T07:46:49.060Z,81.60
2017-12-05T07:49:16.555Z,81.30
2017-12-05T07:51:44.816Z,81.70
2017-12-05T07:54:13.080Z,82.00
2017-12-05T07:56:40.586Z,81.80
2017-12-05T07:59:08.195Z,81.50
2017-12-05T08:01:35.692Z,81.30
2017-12-05T08:04:03.192Z,81.60
2017-12-05T08:06:30.712Z,81.60
2017-12-05T08:08:58.215Z,81.70
2017-12-05T08:11:25.824Z,81.40
2017-12-05T08:13:53.336Z,81.60
2017-12-05T08:16:20.840Z,81.70
2017-12-05T08:18:48.372Z,81.90
2017-12-05T08:21:15.887Z,81.50
2017-12-05T08:23:43.407Z,81.20
2017-12-05T08:26:11.684Z,81.50
2017-12-05T08:28:39.951Z,82.00
2017-12-05T08:31:08.211Z,82.30
2017-12-05T08:33:35.713Z,82.20
2017-12-05T08:36:03.223Z,82.60
2017-12-05T08:38:30.719Z,82.50
2017-12-05T08:40:58.979Z,82.90
2017-12-05T08:43:27.255Z,83.10
2017-12-05T08:45:55.535Z,82.60
2017-12-05T08:48:23.803Z,82.70
2017-12-05T08:50:51.301Z,82.70
2017-12-05T08:53:18.806Z,82.50
2017-12-05T08:55:46.296Z,82.20
2017-12-05T08:58:14.547Z,82.30
2017-12-05T09:00:42.056Z,82.30
2017-12-05T09:03:09.547Z,82.90
2017-12-05T09:05:37.156Z,83.10
2017-12-05T09:08:04.655Z,83.20
2017-12-05T09:10:32.143Z,83.80
2017-12-05T09:12:59.654Z,83.80
2017-12-05T09:15:27.163Z,83.80
2017-12-05T09:17:55.421Z,83.60
2017-12-05T09:20:22.909Z,83.60
2017-12-05T09:22:51.175Z,83.20
2017-12-05T09:25:19.451Z,83.30
2017-12-05T09:27:47.708Z,83.50
2017-12-05T09:30:15.229Z,83.30
2017-12-05T09:32:42.730Z,83.80
2017-12-05T09:35:10.223Z,83.80
2017-12-05T09:37:37.954Z,83.70
2017-12-05T09:40:05.462Z,83.50
2017-12-05T09:42:32.996Z,83.80
2017-12-05T09:45:01.251Z,83.60
2017-12-05T09:47:28.749Z,83.40
2017-12-05T09:49:56.247Z,83.60
2017-12-05T09:52:23.770Z,83.10
2017-12-05T09:54:51.296Z,82.80
2017-12-05T09:57:19.563Z,83.90
2017-12-05T09:59:47.839Z,84.40
2017-12-05T10:02:15.352Z,83.70
2017-12-05T10:04:42.845Z,83.80
2017-12-05T10:07:10.340Z,83.10
2017-12-05T10:09:37.995Z,82.90
2017-12-05T10:12:06.767Z,83.50
2017-12-05T10:14:35.032Z,82.70
2017-12-05T10:17:02.539Z,82.70
2017-12-05T10:19:30.029Z,82.70
2017-12-05T10:21:57.739Z,82.40
2017-12-05T10:24:25.995Z,82.40
2017-12-05T10:26:53.775Z,82.30
2017-12-05T10:29:22.070Z,81.70
2017-12-05T10:31:49.564Z,81.70
2017-12-05T10:34:17.076Z,81.90
2017-12-05T10:36:44.588Z,82.20
2017-12-05T10:39:12.083Z,82.60
2017-12-05T10:41:40.343Z,82.20
2017-12-05T10:44:07.837Z,82.20
2017-12-05T10:46:35.331Z,81.80
2017-12-05T10:49:02.843Z,82.40
2017-12-05T10:51:31.312Z,81.30
2017-12-05T10:53:59.587Z,81.30
2017-12-05T10:56:27.847Z,81.20
2017-12-05T10:58:55.350Z,81.20
2017-12-05T11:01:24.059Z,81.40
2017-12-05T11:03:51.843Z,81.40
2017-12-05T11:06:20.119Z,81.00
2017-12-05T11:08:47.616Z,81.00
2017-12-05T11:11:15.892Z,80.60
2017-12-05T11:13:44.151Z,80.90
2017-12-05T11:16:11.690Z,80.80
2017-12-05T11:18:39.162Z,81.10
2017-12-05T11:21:07.423Z,80.70
2017-12-05T11:23:34.911Z,80.70
2017-12-05T11:26:03.195Z,80.90
2017-12-05T11:28:31.470Z,80.80
2017-12-05T11:30:59.735Z,80.90
2017-12-05T11:33:28.119Z,80.80
2017-12-05T11:35:56.371Z,80.60
2017-12-05T11:38:23.882Z,80.60
2017-12-05T11:40:51.383Z,80.40
2017-12-05T11:43:18.873Z,79.60
2017-12-05T11:45:47.155Z,80.00
2017-12-05T11:48:15.627Z,80.90
2017-12-05T11:50:43.883Z,81.60
2017-12-05T11:53:11.568Z,81.50
2017-12-05T11:55:39.847Z,82.10
2017-12-05T11:58:08.119Z,82.40
2017-12-05T12:00:36.379Z,82.10
2017-12-05T12:03:03.892Z,82.00
2017-12-05T12:05:31.400Z,81.80
2017-12-05T12:07:58.892Z,81.40
2017-12-05T12:10:26.412Z,81.50
2017-12-05T12:12:54.094Z,81.10
2017-12-05T12:15:22.347Z,81.70
2017-12-05T12:17:49.856Z,81.60
2017-12-05T12:20:17.355Z,80.90
2017-12-05T12:22:44.844Z,80.90
2017-12-05T12:25:13.099Z,81.00
2017-12-05T12:27:40.619Z,81.00
2017-12-05T12:30:08.112Z,80.90
2017-12-05T12:32:35.607Z,80.90
2017-12-05T12:35:03.099Z,81.50
2017-12-05T12:37:30.595Z,80.70
2017-12-05T12:39:58.092Z,81.00
2017-12-05T12:42:25.612Z,81.30
2017-12-05T12:44:53.868Z,82.40
2017-12-05T12:47:21.376Z,81.60
2017-12-05T12:49:48.894Z,81.50
2017-12-05T12:52:16.391Z,81.30
2017-12-05T12:54:43.879Z,80.80
2017-12-05T12:57:11.896Z,81.10
2017-12-05T12:59:39.399Z,80.90
2017-12-05T13:02:06.965Z,81.60
2017-12-05T13:04:34.508Z,82.20
2017-12-05T13:07:02.001Z,81.20
2017-12-05T13:09:29.515Z,80.80
2017-12-05T13:11:57.163Z,80.70
2017-12-05T13:14:25.419Z,80.50
2017-12-05T13:16:52.911Z,80.60
2017-12-05T13:19:20.419Z,80.20
2017-12-05T13:21:47.931Z,80.60
2017-12-05T13:24:15.428Z,80.50
2017-12-05T13:26:42.933Z,80.60
2017-12-05T13:29:11.192Z,80.70
2017-12-05T13:31:38.699Z,80.70
2017-12-05T13:34:06.195Z,81.10
2017-12-05T13:36:33.689Z,80.10
2017-12-05T13:39:01.272Z,80.00
2017-12-05T13:41:28.784Z,80.00
2017-12-05T13:43:56.291Z,80.20
2017-12-05T13:46:23.788Z,80.00
2017-12-05T13:48:51.279Z,80.20
2017-12-05T13:51:19.552Z,80.40
2017-12-05T13:53:48.026Z,80.50
2017-12-05T13:56:16.380Z,80.20
2017-12-05T13:58:43.868Z,80.20
2017-12-05T14:01:12.135Z,79.80
2017-12-05T14:03:40.407Z,80.10
2017-12-05T14:06:08.676Z,80.40
2017-12-05T14:08:36.187Z,80.30
2017-12-05T14:11:03.684Z,80.10
2017-12-05T14:13:31.187Z,79.70
2017-12-05T14:15:58.685Z,79.50
2017-12-05T14:18:26.189Z,79.00
2017-12-05T14:20:54.476Z,79.40
2017-12-05T14:23:21.983Z,79.40
2017-12-05T14:25:49.480Z,79.50
2017-12-05T14:28:17.740Z,79.80
2017-12-05T14:30:45.248Z,79.80
2017-12-05T14:33:12.772Z,80.30
2017-12-05T14:35:41.047Z,80.10
2017-12-05T14:38:09.331Z,80.30
2017-12-05T14:40:37.612Z,80.10
2017-12-05T14:43:05.116Z,80.20
2017-12-05T14:45:32.616Z,80.30
2017-12-05T14:48:00.879Z,79.80
2017-12-05T14:50:28.380Z,79.80
2017-12-05T14:52:55.895Z,79.80
2017-12-05T14:55:23.396Z,79.90
2017-12-05T14:57:50.914Z,80.80
2017-12-05T15:00:18.483Z,80.10
2017-12-05T15:02:46.756Z,81.00
2017-12-05T15:05:15.023Z,80.70
2017-12-05T15:07:42.524Z,80.70
2017-12-05T15:10:10.047Z,80.60
2017-12-05T15:12:38.336Z,80.60
2017-12-05T15:15:06.600Z,80.60
2017-12-05T15:17:34.880Z,80.30
2017-12-05T15:20:03.149Z,80.80
2017-12-05T15:22:30.719Z,80.70
2017-12-05T15:24:58.987Z,81.30
2017-12-05T15:27:26.482Z,81.30
2017-12-05T15:29:54.006Z,80.90
2017-12-05T15:32:22.279Z,80.80
2017-12-05T15:34:50.556Z,80.90
2017-12-05T15:37:18.828Z,80.60
2017-12-05T15:39:46.328Z,80.60
2017-12-05T15:42:13.823Z,81.20
2017-12-05T15:44:41.335Z,81.10
2017-12-05T15:47:08.839Z,80.10
2017-12-05T15:49:36.343Z,79.90
2017-12-05T15:52:04.679Z,79.90
2017-12-05T15:54:32.177Z,79.90
2017-12-05T15:56:59.831Z,79.70
2017-12-05T15:59:28.091Z,79.80
2017-12-05T16:01:55.620Z,79.80
2017-12-05T16:04:23.111Z,79.20
2017-12-05T16:06:50.641Z,79.30
2017-12-05T16:09:18.147Z,79.10
2017-12-05T16:11:46.420Z,78.90
2017-12-05T16:14:14.695Z,79.10
2017-12-05T16:16:42.956Z,79.30
2017-12-05T16:19:10.471Z,79.10
2017-12-05T16:21:37.964Z,80.20
2017-12-05T16:24:05.488Z,79.50
2017-12-05T16:26:33.012Z,79.50
2017-12-05T16:29:01.480Z,79.70
2017-12-05T16:31:29.755Z,79.40
2017-12-05T16:33:58.024Z,79.30
2017-12-05T16:36:25.525Z,79.20
2017-12-05T16:38:53.046Z,80.20
2017-12-05T16:41:21.308Z,79.80
2017-12-05T16:43:48.843Z,79.70
2017-12-05T16:46:16.356Z,80.10
2017-12-05T16:48:44.627Z,79.80
2017-12-05T16:51:12.888Z,80.00
2017-12-05T16:53:40.432Z,79.90
2017-12-05T16:56:08.124Z,79.50
2017-12-05T16:58:36.400Z,79.50
2017-12-05T17:01:04.681Z,79.90
2017-12-05T17:03:32.967Z,79.70
2017-12-05T17:06:00.503Z,79.70
2017-12-05T17:08:28.772Z,80.00
2017-12-05T17:10:56.272Z,80.00
2017-12-05T17:13:23.780Z,79.80
2017-12-05T17:15:51.279Z,79.40
2017-12-05T17:18:18.799Z,79.50
2017-12-05T17:20:46.307Z,79.20
2017-12-05T17:23:13.947Z,79.70
2017-12-05T17:25:42.220Z,79.60
2017-12-05T17:28:10.524Z,79.30
2017-12-05T17:30:38.046Z,79.30
2017-12-05T17:33:06.409Z,79.00
2017-12-05T17:35:34.695Z,79.10
2017-12-05T17:38:02.995Z,78.60
2017-12-05T17:40:30.501Z,78.60
2017-12-05T17:42:58.023Z,78.30
2017-12-05T17:45:25.538Z,78.30
2017-12-05T17:47:53.045Z,78.50
2017-12-05T17:50:20.572Z,78.30
2017-12-05T17:52:48.862Z,78.50
2017-12-05T17:55:16.516Z,78.40
2017-12-05T17:57:44.779Z,78.00
2017-12-05T18:00:13.071Z,77.70
2017-12-05T18:02:41.393Z,77.40
2017-12-05T18:05:08.944Z,77.30
2017-12-05T18:07:36.452Z,77.50
2017-12-05T18:10:03.976Z,77.60
2017-12-05T18:12:32.636Z,77.60
2017-12-05T18:15:00.171Z,77.30
2017-12-05T18:17:28.489Z,76.70
2017-12-05T18:19:56.007Z,76.70
2017-12-05T18:22:24.344Z,76.20
2017-12-05T18:24:52.027Z,76.20
2017-12-05T18:27:19.536Z,76.50
2017-12-05T18:29:47.051Z,76.70
2017-12-05T18:32:15.351Z,76.60
2017-12-05T18:34:42.999Z,76.50
2017-12-05T18:37:11.479Z,76.40
2017-12-05T18:39:39.755Z,76.60
2017-12-05T18:42:08.019Z,76.90
2017-12-05T18:44:35.539Z,76.90
2017-12-05T18:47:03.051Z,77.10
2017-12-05T18:49:31.314Z,77.20
2017-12-05T18:51:59.589Z,77.20
2017-12-05T18:54:27.859Z,77.10
2017-12-05T18:56:55.358Z,77.10
2017-12-05T18:59:22.860Z,77.00
2017-12-05T19:01:50.355Z,77.20
2017-12-05T19:04:18.612Z,76.60
2017-12-05T19:06:46.147Z,76.60
2017-12-05T19:09:13.643Z,77.00
2017-12-05T19:11:41.907Z,76.30
2017-12-05T19:14:09.404Z,76.30
2017-12-05T19:16:36.902Z,76.10
2017-12-05T19:19:04.399Z,76.50
2017-12-05T19:21:32.667Z,76.00
2017-12-05T19:24:00.951Z,76.20
2017-12-05T19:26:29.256Z,76.20
2017-12-05T19:28:56.751Z,76.10
2017-12-05T19:31:24.255Z,76.00
2017-12-05T19:33:51.775Z,76.30
2017-12-05T19:36:20.040Z,76.30
2017-12-05T19:38:47.549Z,76.30
2017-12-05T19:41:15.047Z,76.30
2017-12-05T19:43:42.592Z,76.40
2017-12-05T19:46:10.083Z,76.10
2017-12-05T19:48:37.584Z,76.30
2017-12-05T19:51:05.244Z,76.20
2017-12-05T19:53:32.765Z,76.10
2017-12-05T19:56:00.291Z,76.20
2017-12-05T19:58:27.798Z,76.10
2017-12-05T20:00:56.072Z,76.20
2017-12-05T20:03:24.350Z,76.00
2017-12-05T20:05:52.634Z,76.00
2017-12-05T20:08:20.912Z,76.00
2017-12-05T20:10:49.196Z,75.90
2017-12-05T20:13:17.463Z,76.20
2017-12-05T20:15:45.743Z,76.00
2017-12-05T20:18:14.011Z,76.20
2017-12-05T20:20:42.280Z,75.90
2017-12-05T20:23:09.796Z,75.90
2017-12-05T20:25:37.307Z,75.90
2017-12-05T20:28:05.577Z,76.10
2017-12-05T20:30:33.876Z,76.70
2017-12-05T20:33:01.392Z,76.60
2017-12-05T20:35:28.891Z,76.60
2017-12-05T20:37:56.410Z,76.70
2017-12-05T20:40:23.911Z,76.60
2017-12-05T20:42:51.463Z,76.50
2017-12-05T20:45:19.732Z,76.80
2017-12-05T20:47:48.015Z,76.30
2017-12-05T20:50:16.494Z,76.60
2017-12-05T20:52:44.762Z,76.00
2017-12-05T20:55:13.053Z,75.70
2017-12-05T20:57:41.535Z,76.10
2017-12-05T21:00:09.055Z,76.10
2017-12-05T21:02:36.574Z,75.70
2017-12-05T21:05:04.200Z,76.10
2017-12-05T21:07:32.472Z,75.80
2017-12-05T21:10:00.743Z,75.70
2017-12-05T21:12:28.251Z,75.60
2017-12-05T21:14:55.753Z,75.60
2017-12-05T21:17:23.275Z,75.60
2017-12-05T21:19:50.779Z,74.80
2017-12-05T21:22:19.064Z,75.20
2017-12-05T21:24:47.348Z,75.30
2017-12-05T21:27:15.634Z,75.20
2017-12-05T21:29:43.131Z,75.30
2017-12-05T21:32:10.633Z,74.80
2017-12-05T21:34:38.926Z,74.80
2017-12-05T21:37:06.429Z,74.80
2017-12-05T21:39:33.939Z,74.80
2017-12-05T21:42:01.441Z,74.60
2017-12-05T21:44:28.931Z,74.80
2017-12-05T21:46:56.443Z,75.00
2017-12-05T21:49:23.939Z,75.40
2017-12-05T21:51:51.675Z,74.90
2017-12-05T21:54:19.131Z,74.80
2017-12-05T21:56:46.631Z,74.60
2017-12-05T21:59:14.887Z,74.80
2017-12-05T22:01:42.401Z,74.80
2017-12-05T22:04:09.911Z,74.80
2017-12-05T22:06:37.427Z,75.10
2017-12-05T22:09:05.151Z,74.70
2017-12-05T22:11:33.411Z,74.80
2017-12-05T22:14:00.928Z,74.80
2017-12-05T22:16:28.429Z,74.50
2017-12-05T22:18:57.432Z,74.50
2017-12-05T22:21:25.703Z,74.60
2017-12-05T22:23:53.208Z,74.60
2017-12-05T22:26:20.728Z,74.00
2017-12-05T22:28:49.007Z,74.00
2017-12-05T22:31:17.279Z,73.70
2017-12-05T22:33:45.540Z,73.80
2017-12-05T22:36:13.042Z,73.70
2017-12-05T22:38:40.551Z,73.70
2017-12-05T22:41:08.075Z,73.70
2017-12-05T22:43:35.591Z,73.70
2017-12-05T22:46:03.869Z,73.50
2017-12-05T22:48:32.135Z,73.60
2017-12-05T22:50:59.807Z,73.50
2017-12-05T22:53:28.067Z,73.20
2017-12-05T22:55:55.587Z,73.10
2017-12-05T22:58:23.115Z,73.10
2017-12-05T23:00:50.612Z,73.00
2017-12-05T23:03:18.127Z,73.10
2017-12-05T23:05:46.403Z,72.90
2017-12-05T23:08:14.669Z,73.40
2017-12-05T23:10:42.935Z,73.20
2017-12-05T23:13:10.463Z,74.00
2017-12-05T23:15:37.968Z,73.00
2017-12-05T23:18:06.231Z,73.20
2017-12-05T23:20:33.747Z,73.10
2017-12-05T23:23:01.267Z,73.90
2017-12-05T23:25:29.547Z,73.50
2017-12-05T23:27:57.815Z,73.80
2017-12-05T23:30:26.085Z,73.50
2017-12-05T23:32:54.368Z,73.40
2017-12-05T23:35:22.634Z,72.90
2017-12-05T23:37:50.919Z,73.00
2017-12-05T23:40:19.186Z,72.80
2017-12-05T23:42:47.470Z,72.80
2017-12-05T23:45:15.739Z,73.30
2017-12-05T23:47:43.999Z,73.60
2017-12-05T23:50:11.519Z,73.20
2017-12-05T23:52:39.011Z,73.20
2017-12-05T23:55:06.524Z,73.10
2017-12-05T23:57:34.036Z,73.20
